createdAt,value
2023-05-21T00:01:48.696Z,100.00
2023-05-21T00:08:37.812Z,100.00
2023-05-21T00:11:07.526Z,100.00
2023-05-21T00:13:36.825Z,100.00
2023-05-21T00:16:05.959Z,100.00
2023-05-21T00:18:35.216Z,100.00
2023-05-21T00:21:04.293Z,100.00
2023-05-21T00:23:34.629Z,100.00
2023-05-21T00:26:05.270Z,100.00
2023-05-21T00:28:34.354Z,100.00
2023-05-21T00:31:03.547Z,100.00
2023-05-21T00:33:32.641Z,100.00
2023-05-21T00:36:02.554Z,100.00
2023-05-21T00:38:33.475Z,100.00
2023-05-21T00:41:04.738Z,100.00
2023-05-21T00:43:34.452Z,100.00
2023-05-21T00:50:24.657Z,100.00
2023-05-21T00:52:54.782Z,100.00
2023-05-21T00:59:44.170Z,100.00
2023-05-21T01:02:14.618Z,100.00
2023-05-21T01:09:03.890Z,100.00
2023-05-21T01:11:40.871Z,100.00
2023-05-21T01:14:10.577Z,100.00
2023-05-21T01:21:07.781Z,100.00
2023-05-21T01:23:38.581Z,100.00
2023-05-21T01:30:26.952Z,100.00
2023-05-21T01:32:59.019Z,100.00
2023-05-21T01:39:42.490Z,100.00
2023-05-21T01:46:32.727Z,100.00
2023-05-21T01:49:02.096Z,100.00
2023-05-21T01:56:04.184Z,100.00
2023-05-21T01:58:33.383Z,100.00
2023-05-21T02:05:15.101Z,100.00
2023-05-21T02:07:45.727Z,100.00
2023-05-21T02:10:15.129Z,100.00
2023-05-21T02:16:58.483Z,100.00
2023-05-21T02:19:27.841Z,100.00
2023-05-21T02:26:08.679Z,100.00
2023-05-21T02:28:37.982Z,100.00
2023-05-21T02:35:15.494Z,100.00
2023-05-21T02:41:56.800Z,100.00
2023-05-21T02:44:26.302Z,100.00
2023-05-21T02:51:09.346Z,100.00
2023-05-21T02:53:38.745Z,100.00
2023-05-21T02:56:08.148Z,100.00
2023-05-21T02:58:37.355Z,100.00
2023-05-21T03:01:06.666Z,100.00
2023-05-21T03:03:35.901Z,100.00
2023-05-21T03:06:05.238Z,100.00
2023-05-21T03:08:37.743Z,100.00
2023-05-21T03:11:07.117Z,100.00
2023-05-21T03:13:36.352Z,100.00
2023-05-21T03:16:05.820Z,100.00
2023-05-21T03:18:34.907Z,100.00
2023-05-21T03:21:04.923Z,100.00
2023-05-21T03:23:35.452Z,100.00
2023-05-21T03:26:05.162Z,100.00
2023-05-21T03:32:53.083Z,100.00
2023-05-21T03:35:22.137Z,100.00
2023-05-21T03:42:11.312Z,100.00
2023-05-21T03:44:40.624Z,100.00
2023-05-21T03:51:27.799Z,100.00
2023-05-21T03:58:16.322Z,100.00
2023-05-21T04:00:45.925Z,100.00
2023-05-21T04:07:34.094Z,100.00
2023-05-21T04:10:04.209Z,100.00
2023-05-21T04:16:54.427Z,100.00
2023-05-21T04:28:13.132Z,100.00
2023-05-21T04:30:42.117Z,100.00
2023-05-21T04:37:31.923Z,100.00
2023-05-21T04:40:01.972Z,100.00
2023-05-21T04:42:31.033Z,100.00
2023-05-21T04:45:00.440Z,100.00
2023-05-21T04:47:30.806Z,100.00
2023-05-21T04:54:20.158Z,100.00
2023-05-21T04:56:49.350Z,100.00
2023-05-21T05:03:42.774Z,100.00
2023-05-21T05:06:12.247Z,100.00
2023-05-21T05:12:55.601Z,100.00
2023-05-21T05:15:24.894Z,100.00
2023-05-21T05:17:55.064Z,100.00
2023-05-21T05:29:20.893Z,100.00
2023-05-21T05:31:50.084Z,100.00
2023-05-21T05:38:32.114Z,100.00
2023-05-21T05:41:01.405Z,100.00
2023-05-21T05:43:30.500Z,100.00
2023-05-21T05:46:01.383Z,100.00
2023-05-21T05:48:31.457Z,100.00
2023-05-21T05:51:00.554Z,100.00
2023-05-21T05:53:29.947Z,100.00
2023-05-21T06:00:14.537Z,100.00
2023-05-21T06:02:45.218Z,100.00
2023-05-21T06:09:27.079Z,100.00
2023-05-21T06:11:56.576Z,100.00
2023-05-21T06:14:25.795Z,100.00
2023-05-21T06:16:55.074Z,100.00
2023-05-21T06:19:26.128Z,100.00
2023-05-21T06:21:56.621Z,100.00
2023-05-21T06:24:26.144Z,100.00
2023-05-21T06:26:55.546Z,100.00
2023-05-21T06:29:25.153Z,100.00
2023-05-21T06:36:08.816Z,100.00
2023-05-21T06:38:38.425Z,100.00
2023-05-21T06:45:26.293Z,100.00
2023-05-21T06:47:55.795Z,100.00
2023-05-21T06:54:45.587Z,100.00
2023-05-21T06:57:16.734Z,100.00
2023-05-21T06:59:46.245Z,100.00
2023-05-21T07:02:17.281Z,100.00
2023-05-21T07:04:46.985Z,100.00
2023-05-21T07:11:30.429Z,100.00
2023-05-21T07:14:01.164Z,100.00
2023-05-21T07:20:42.057Z,100.00
2023-05-21T07:23:11.354Z,100.00
2023-05-21T07:25:40.758Z,100.00
2023-05-21T07:28:11.597Z,100.00
2023-05-21T07:30:40.791Z,100.00
2023-05-21T07:33:10.316Z,100.00
2023-05-21T07:35:39.525Z,100.00
2023-05-21T07:38:08.582Z,100.00
2023-05-21T07:40:37.790Z,100.00
2023-05-21T07:43:07.181Z,100.00
2023-05-21T07:45:38.363Z,100.00
2023-05-21T07:48:08.395Z,100.00
2023-05-21T07:50:38.152Z,100.00
2023-05-21T07:53:07.744Z,100.00
2023-05-21T07:55:37.896Z,100.00
2023-05-21T08:02:15.498Z,98.29
2023-05-21T08:04:44.950Z,99.36
2023-05-21T08:11:33.477Z,96.86
2023-05-21T08:14:02.582Z,99.55
2023-05-21T08:16:32.075Z,100.00
2023-05-21T08:19:03.080Z,96.99
2023-05-21T08:21:33.344Z,97.75
2023-05-21T08:24:03.143Z,93.39
2023-05-21T08:26:32.550Z,90.94
2023-05-21T08:29:02.174Z,91.15
2023-05-21T08:31:31.472Z,94.15
2023-05-21T08:34:01.974Z,89.92
2023-05-21T08:36:31.887Z,91.87
2023-05-21T08:39:01.493Z,88.69
2023-05-21T08:41:33.148Z,89.42
2023-05-21T08:48:21.725Z,92.46
2023-05-21T08:50:52.778Z,91.39
2023-05-21T08:57:44.616Z,87.94
2023-05-21T09:00:15.247Z,88.05
2023-05-21T09:07:15.597Z,91.35
2023-05-21T09:09:52.879Z,94.98
2023-05-21T09:12:22.182Z,96.00
2023-05-21T09:14:51.893Z,96.72
2023-05-21T09:17:21.491Z,96.46
2023-05-21T09:20:12.586Z,91.89
2023-05-21T09:22:48.165Z,89.79
2023-05-21T09:25:18.466Z,87.89
2023-05-21T09:31:46.598Z,97.61
2023-05-21T09:38:42.102Z,100.00
2023-05-21T09:41:11.402Z,100.00
2023-05-21T09:47:52.864Z,99.97
2023-05-21T09:50:24.055Z,98.69
2023-05-21T09:52:55.807Z,96.67
2023-05-21T09:55:27.652Z,100.00
2023-05-21T09:57:57.071Z,96.89
2023-05-21T10:00:27.808Z,98.31
2023-05-21T10:02:57.768Z,100.00
2023-05-21T10:09:40.556Z,90.22
2023-05-21T10:12:11.597Z,98.70
2023-05-21T10:18:54.984Z,96.90
2023-05-21T10:21:32.339Z,97.55
2023-05-21T10:28:31.559Z,100.00
2023-05-21T10:31:01.099Z,100.00
2023-05-21T10:33:31.985Z,100.00
2023-05-21T10:40:14.235Z,100.00
2023-05-21T10:43:18.550Z,100.00
2023-05-21T10:46:01.542Z,100.00
2023-05-21T10:48:41.009Z,98.86
2023-05-21T10:55:40.847Z,95.61
2023-05-21T10:58:41.501Z,96.65
2023-05-21T11:05:43.783Z,94.62
2023-05-21T11:08:24.560Z,97.53
2023-05-21T11:15:17.947Z,98.42
2023-05-21T11:17:48.493Z,97.18
2023-05-21T11:24:45.017Z,98.29
2023-05-21T11:27:14.849Z,100.00
2023-05-21T11:29:45.425Z,98.24
2023-05-21T11:32:21.009Z,100.00
2023-05-21T11:34:50.619Z,99.33
2023-05-21T11:37:32.820Z,100.00
2023-05-21T11:40:21.669Z,99.63
2023-05-21T11:42:55.499Z,99.07
2023-05-21T11:49:37.512Z,98.74
2023-05-21T11:56:34.779Z,95.51
2023-05-21T11:59:04.593Z,87.93
2023-05-21T12:05:48.157Z,76.04
2023-05-21T12:08:25.813Z,77.75
2023-05-21T12:15:21.808Z,77.15
2023-05-21T12:17:53.487Z,74.60
2023-05-21T12:20:23.164Z,78.34
2023-05-21T12:32:02.021Z,79.04
2023-05-21T12:34:45.061Z,71.67
2023-05-21T12:41:33.147Z,72.22
2023-05-21T12:44:02.927Z,70.20
2023-05-21T12:50:54.679Z,69.69
2023-05-21T12:53:24.105Z,70.33
2023-05-21T12:55:57.174Z,68.80
2023-05-21T13:02:47.954Z,68.20
2023-05-21T13:05:18.938Z,69.79
2023-05-21T13:12:08.032Z,69.74
2023-05-21T13:14:37.747Z,66.27
2023-05-21T13:21:31.638Z,66.73
2023-05-21T13:24:01.336Z,65.43
2023-05-21T13:26:30.741Z,68.39
2023-05-21T13:33:19.677Z,71.97
2023-05-21T13:35:51.681Z,67.71
2023-05-21T13:42:47.661Z,70.51
2023-05-21T13:45:18.806Z,67.38
2023-05-21T13:52:09.402Z,63.11
2023-05-21T13:58:57.865Z,63.27
2023-05-21T14:08:24.147Z,60.63
2023-05-21T14:10:53.690Z,61.89
2023-05-21T14:17:35.882Z,62.98
2023-05-21T14:20:05.418Z,65.46
2023-05-21T14:22:34.788Z,64.08
2023-05-21T14:34:03.292Z,62.48
2023-05-21T14:36:33.014Z,61.59
2023-05-21T14:43:21.588Z,65.29
2023-05-21T14:45:51.204Z,61.51
2023-05-21T14:51:36.482Z,63.59
2023-05-21T14:58:24.256Z,65.48
2023-05-21T15:00:53.537Z,63.60
2023-05-21T15:03:23.045Z,63.02
2023-05-21T15:05:52.340Z,63.35
2023-05-21T15:08:22.969Z,62.98
2023-05-21T15:10:52.519Z,64.36
2023-05-21T15:13:22.281Z,63.57
2023-05-21T15:15:52.116Z,65.19
2023-05-21T15:18:21.296Z,64.03
2023-05-21T15:20:50.904Z,65.80
2023-05-21T15:23:20.615Z,64.62
2023-05-21T15:25:51.956Z,63.48
2023-05-21T15:28:23.344Z,63.84
2023-05-21T15:30:53.014Z,63.80
2023-05-21T15:33:22.312Z,66.20
2023-05-21T15:35:51.623Z,67.45
2023-05-21T15:38:21.017Z,65.43
2023-05-21T15:40:52.061Z,65.32
2023-05-21T15:43:21.252Z,66.91
2023-05-21T15:45:50.550Z,63.43
2023-05-21T15:48:22.982Z,63.20
2023-05-21T15:50:52.223Z,61.47
2023-05-21T15:53:22.133Z,60.87
2023-05-21T15:55:52.559Z,60.37
2023-05-21T15:58:21.862Z,62.26
2023-05-21T16:00:51.068Z,63.27
2023-05-21T16:03:20.413Z,61.58
2023-05-21T16:10:14.455Z,64.47
2023-05-21T16:12:45.600Z,61.64
2023-05-21T16:19:27.244Z,57.83
2023-05-21T16:21:56.717Z,56.89
2023-05-21T16:27:52.454Z,59.60
2023-05-21T16:34:40.413Z,59.45
2023-05-21T16:37:10.322Z,60.01
2023-05-21T16:39:39.627Z,60.03
2023-05-21T16:42:08.737Z,58.08
2023-05-21T16:44:39.687Z,56.89
2023-05-21T16:47:08.860Z,56.99
2023-05-21T16:49:38.046Z,60.05
2023-05-21T16:52:07.860Z,61.79
2023-05-21T16:54:37.052Z,60.39
2023-05-21T16:57:06.254Z,63.03
2023-05-21T16:59:35.854Z,65.29
2023-05-21T17:02:07.569Z,68.95
2023-05-21T17:04:37.232Z,70.10
2023-05-21T17:07:06.921Z,71.26
2023-05-21T17:09:36.139Z,70.60
2023-05-21T17:12:05.633Z,72.91
2023-05-21T17:14:36.247Z,73.53
2023-05-21T17:21:27.708Z,75.09
2023-05-21T17:23:57.009Z,75.22
2023-05-21T17:35:20.424Z,78.78
2023-05-21T17:37:51.150Z,79.76
2023-05-21T17:40:21.693Z,80.81
2023-05-21T17:42:50.565Z,81.55
2023-05-21T17:45:19.465Z,79.58
2023-05-21T17:47:48.880Z,80.77
2023-05-21T17:50:18.156Z,82.07
2023-05-21T17:57:07.140Z,80.24
2023-05-21T17:59:36.539Z,81.46
2023-05-21T18:06:25.521Z,85.59
2023-05-21T18:08:55.354Z,84.36
2023-05-21T18:15:38.298Z,88.51
2023-05-21T18:18:08.258Z,90.53
2023-05-21T18:20:38.180Z,89.91
2023-05-21T18:27:19.715Z,94.17
2023-05-21T18:29:50.039Z,93.89
2023-05-21T18:36:40.456Z,95.45
2023-05-21T18:39:10.585Z,96.75
2023-05-21T18:45:59.375Z,100.00
2023-05-21T18:48:28.547Z,100.00
2023-05-21T18:50:58.465Z,100.00
2023-05-21T18:57:41.302Z,100.00
2023-05-21T19:00:11.919Z,100.00
2023-05-21T19:06:59.279Z,100.00
2023-05-21T19:09:28.379Z,100.00
2023-05-21T19:11:57.887Z,100.00
2023-05-21T19:14:28.816Z,100.00
2023-05-21T19:16:58.122Z,100.00
2023-05-21T19:19:27.976Z,100.00
2023-05-21T19:21:57.428Z,100.00
2023-05-21T19:24:27.346Z,100.00
2023-05-21T19:26:56.745Z,100.00
2023-05-21T19:29:28.803Z,100.00
2023-05-21T19:31:59.646Z,100.00
2023-05-21T19:34:29.050Z,100.00
2023-05-21T19:36:58.370Z,100.00
2023-05-21T19:43:47.052Z,100.00
2023-05-21T19:46:19.746Z,100.00
2023-05-21T19:53:15.956Z,100.00
2023-05-21T19:55:46.385Z,100.00
2023-05-21T20:02:29.023Z,100.00
2023-05-21T20:04:59.427Z,100.00
2023-05-21T20:07:28.739Z,100.00
2023-05-21T20:09:59.278Z,100.00
2023-05-21T20:12:28.668Z,100.00
2023-05-21T20:19:16.811Z,100.00
2023-05-21T20:21:46.239Z,100.00
2023-05-21T20:28:29.177Z,100.00
2023-05-21T20:30:59.433Z,100.00
2023-05-21T20:37:47.878Z,100.00
2023-05-21T20:44:31.015Z,100.00
2023-05-21T20:47:02.053Z,100.00
2023-05-21T20:53:49.627Z,100.00
2023-05-21T21:00:32.038Z,100.00
2023-05-21T21:03:02.429Z,100.00
2023-05-21T21:09:52.781Z,100.00
2023-05-21T21:12:26.545Z,100.00
2023-05-21T21:19:22.161Z,100.00
2023-05-21T21:21:51.530Z,100.00
2023-05-21T21:24:20.512Z,100.00
2023-05-21T21:26:49.816Z,100.00
2023-05-21T21:29:19.015Z,100.00
2023-05-21T21:31:48.632Z,100.00
2023-05-21T21:34:17.616Z,100.00
2023-05-21T21:36:48.242Z,100.00
2023-05-21T21:39:17.730Z,100.00
2023-05-21T21:41:47.365Z,100.00
2023-05-21T21:44:16.545Z,100.00
2023-05-21T21:46:47.283Z,100.00
2023-05-21T21:49:17.665Z,100.00
2023-05-21T21:51:48.844Z,100.00
2023-05-21T21:54:17.836Z,100.00
2023-05-21T22:00:59.480Z,100.00
2023-05-21T22:03:29.058Z,100.00
2023-05-21T22:10:13.331Z,100.00
2023-05-21T22:12:43.057Z,100.00
2023-05-21T22:15:20.245Z,100.00
2023-05-21T22:17:50.472Z,100.00
2023-05-21T22:20:20.152Z,100.00
2023-05-21T22:22:49.558Z,100.00
2023-05-21T22:25:20.393Z,100.00
2023-05-21T22:27:49.379Z,100.00
2023-05-21T22:30:18.787Z,100.00
2023-05-21T22:32:48.734Z,100.00
2023-05-21T22:35:18.101Z,100.00
2023-05-21T22:41:55.123Z,100.00
2023-05-21T22:44:24.712Z,100.00
2023-05-21T22:51:05.911Z,100.00
2023-05-21T22:53:36.030Z,100.00
2023-05-21T22:56:05.532Z,100.00
2023-05-21T22:58:37.093Z,100.00
2023-05-21T23:01:06.901Z,100.00
2023-05-21T23:03:36.094Z,100.00
2023-05-21T23:06:05.491Z,100.00
2023-05-21T23:08:35.199Z,100.00
2023-05-21T23:11:04.702Z,100.00
2023-05-21T23:13:35.435Z,100.00
2023-05-21T23:16:04.760Z,100.00
2023-05-21T23:22:46.653Z,100.00
2023-05-21T23:25:16.060Z,100.00
2023-05-21T23:36:44.189Z,100.00
2023-05-21T23:39:13.586Z,100.00
2023-05-21T23:41:42.986Z,100.00
2023-05-21T23:44:12.904Z,100.00
2023-05-21T23:46:42.097Z,100.00
2023-05-21T23:49:11.990Z,100.00
2023-05-21T23:51:42.943Z,100.00
2023-05-21T23:54:12.351Z,100.00
2023-05-21T23:56:41.540Z,100.00
2023-05-21T23:59:10.542Z,100.00
